createdAt,value
2022-11-27T00:01:18.195Z,100053.28
2022-11-27T00:03:45.087Z,100040.06
2022-11-27T00:06:17.715Z,100035.03
2022-11-27T00:08:45.076Z,100031.72
2022-11-27T00:11:21.149Z,100036.81
2022-11-27T00:13:48.527Z,100033.22
2022-11-27T00:16:15.559Z,100027.66
2022-11-27T00:18:42.364Z,100024.03
2022-11-27T00:21:12.408Z,100014.16
2022-11-27T00:23:39.587Z,100013.28
2022-11-27T00:26:07.031Z,100001.44
2022-11-27T00:28:34.291Z,99998.34
2022-11-27T00:31:02.323Z,100003.66
2022-11-27T00:33:28.845Z,99997.75
2022-11-27T00:35:55.394Z,99996.94
2022-11-27T00:38:22.139Z,99993.22
2022-11-27T00:40:48.632Z,99991.06
2022-11-27T00:43:15.232Z,99994.16
2022-11-27T00:45:41.836Z,99993.97
2022-11-27T00:48:08.393Z,99986.72
2022-11-27T00:50:34.866Z,99988.22
2022-11-27T00:53:01.329Z,99991.75
2022-11-27T00:55:27.819Z,99997.91
2022-11-27T00:57:54.311Z,99994.06
2022-11-27T01:00:20.993Z,99994.56
2022-11-27T01:02:47.517Z,99991.53
2022-11-27T01:05:14.042Z,99992.50
2022-11-27T01:07:40.646Z,100002.03
2022-11-27T01:10:08.201Z,99996.09
2022-11-27T01:12:34.648Z,99989.16
2022-11-27T01:15:01.088Z,99991.06
2022-11-27T01:17:27.637Z,99986.59
2022-11-27T01:19:54.133Z,99971.66
2022-11-27T01:22:20.633Z,99971.97
2022-11-27T01:24:47.091Z,99968.59
2022-11-27T01:27:14.921Z,99973.09
2022-11-27T01:29:41.324Z,99987.66
2022-11-27T01:32:07.747Z,99988.38
2022-11-27T01:34:34.403Z,99978.47
2022-11-27T01:37:00.792Z,99973.03
2022-11-27T01:39:27.222Z,99964.47
2022-11-27T01:41:53.631Z,99973.41
2022-11-27T01:44:26.186Z,99971.53
2022-11-27T01:46:57.115Z,99968.69
2022-11-27T01:49:30.746Z,99966.75
2022-11-27T01:52:08.010Z,99958.09
2022-11-27T01:54:43.436Z,99966.63
2022-11-27T01:57:15.430Z,99954.44
2022-11-27T01:59:42.666Z,99957.28
2022-11-27T02:02:09.262Z,99955.63
2022-11-27T02:04:36.030Z,99960.13
2022-11-27T02:07:02.850Z,99954.59
2022-11-27T02:09:30.655Z,99950.53
2022-11-27T02:12:25.048Z,99949.84
2022-11-27T02:14:59.956Z,99944.81
2022-11-27T02:17:41.011Z,99943.88
2022-11-27T02:20:19.517Z,99933.72
2022-11-27T02:23:10.300Z,99933.56
2022-11-27T02:25:54.888Z,99944.19
2022-11-27T02:28:50.663Z,99936.31
2022-11-27T02:31:38.599Z,99933.03
2022-11-27T02:34:24.912Z,99928.84
2022-11-27T02:37:07.278Z,99939.03
2022-11-27T02:39:41.200Z,99927.22
2022-11-27T02:42:20.946Z,99928.19
2022-11-27T02:45:02.960Z,99914.47
2022-11-27T02:47:31.870Z,99920.44
2022-11-27T02:49:59.545Z,99919.63
2022-11-27T02:52:27.680Z,99919.63
2022-11-27T02:55:03.338Z,99914.78
2022-11-27T02:57:32.212Z,99910.69
2022-11-27T03:00:00.253Z,99920.47
2022-11-27T03:02:36.820Z,99910.69
2022-11-27T03:05:06.641Z,99903.09
2022-11-27T03:07:40.180Z,99899.88
2022-11-27T03:10:17.558Z,99895.78
2022-11-27T03:12:45.387Z,99890.28
2022-11-27T03:15:12.483Z,99885.25
2022-11-27T03:17:55.060Z,99886.28
2022-11-27T03:20:32.967Z,99881.34
2022-11-27T03:22:59.707Z,99883.22
2022-11-27T03:25:26.206Z,99888.00
2022-11-27T03:28:00.860Z,99890.03
2022-11-27T03:30:27.884Z,99895.59
2022-11-27T03:32:54.982Z,99886.94
2022-11-27T03:35:24.638Z,99886.81
2022-11-27T03:37:52.389Z,99883.84
2022-11-27T03:40:19.860Z,99878.81
2022-11-27T03:42:58.536Z,99884.38
2022-11-27T03:45:36.260Z,99885.59
2022-11-27T03:48:27.651Z,99883.19
2022-11-27T03:51:27.413Z,99884.25
2022-11-27T03:54:09.069Z,99877.75
2022-11-27T03:56:41.926Z,99883.84
2022-11-27T03:59:15.439Z,99879.81
2022-11-27T04:01:42.469Z,99872.38
2022-11-27T04:04:09.275Z,99868.44
2022-11-27T04:06:35.880Z,99867.06
2022-11-27T04:09:02.495Z,99861.78
2022-11-27T04:11:28.952Z,99864.59
2022-11-27T04:13:55.481Z,99860.00
2022-11-27T04:16:22.293Z,99864.75
2022-11-27T04:18:48.857Z,99869.50
2022-11-27T04:21:16.875Z,99869.66
2022-11-27T04:23:44.271Z,99870.88
2022-11-27T04:26:11.371Z,99871.34
2022-11-27T04:28:37.945Z,99874.53
2022-11-27T04:31:07.477Z,99875.03
2022-11-27T04:33:34.011Z,99876.88
2022-11-27T04:36:00.586Z,99876.88
2022-11-27T04:38:27.118Z,99873.78
2022-11-27T04:40:53.758Z,99870.84
2022-11-27T04:43:20.793Z,99867.34
2022-11-27T04:45:47.322Z,99873.78
2022-11-27T04:48:14.112Z,99884.31
2022-11-27T04:50:40.552Z,99884.22
2022-11-27T04:53:07.002Z,99888.53
2022-11-27T04:55:34.778Z,99904.56
2022-11-27T04:58:01.187Z,99904.47
2022-11-27T05:00:27.701Z,99892.47
2022-11-27T05:02:54.284Z,99874.16
2022-11-27T05:05:20.882Z,99879.66
2022-11-27T05:07:47.301Z,99881.66
2022-11-27T05:10:13.701Z,99873.94
2022-11-27T05:12:40.163Z,99877.59
2022-11-27T05:15:07.257Z,99867.31
2022-11-27T05:17:33.701Z,99868.81
2022-11-27T05:20:00.143Z,99863.97
2022-11-27T05:22:26.576Z,99862.38
2022-11-27T05:24:53.028Z,99866.19
2022-11-27T05:27:19.511Z,99865.66
2022-11-27T05:29:46.200Z,99875.66
2022-11-27T05:32:12.612Z,99877.75
2022-11-27T05:34:39.504Z,99876.66
2022-11-27T05:37:06.436Z,99876.06
2022-11-27T05:39:32.863Z,99875.13
2022-11-27T05:41:59.334Z,99879.44
2022-11-27T05:44:26.726Z,99869.78
2022-11-27T05:46:53.139Z,99874.63
2022-11-27T05:49:19.587Z,99865.00
2022-11-27T05:51:51.033Z,99873.50
2022-11-27T05:54:18.564Z,99869.94
2022-11-27T05:56:45.022Z,99871.53
2022-11-27T05:59:12.591Z,99869.25
2022-11-27T06:01:39.128Z,99873.59
2022-11-27T06:04:05.560Z,99869.63
2022-11-27T06:06:32.321Z,99862.47
2022-11-27T06:08:58.777Z,99863.38
2022-11-27T06:11:25.234Z,99864.69
2022-11-27T06:13:51.919Z,99860.50
2022-11-27T06:16:21.537Z,99866.19
2022-11-27T06:18:52.339Z,99868.13
2022-11-27T06:21:20.167Z,99867.38
2022-11-27T06:23:46.845Z,99867.00
2022-11-27T06:26:23.829Z,99867.88
2022-11-27T06:28:51.086Z,99870.25
2022-11-27T06:31:20.270Z,99861.22
2022-11-27T06:33:48.606Z,99862.03
2022-11-27T06:36:15.813Z,99850.00
2022-11-27T06:38:42.966Z,99858.25
2022-11-27T06:41:11.978Z,99860.56
2022-11-27T06:43:38.986Z,99855.13
2022-11-27T06:46:07.249Z,99858.91
2022-11-27T06:48:34.654Z,99851.47
2022-11-27T06:51:06.597Z,99845.38
2022-11-27T06:53:37.410Z,99849.47
2022-11-27T06:56:06.041Z,99840.53
2022-11-27T06:58:32.857Z,99838.38
2022-11-27T07:01:00.418Z,99846.91
2022-11-27T07:03:27.457Z,99842.03
2022-11-27T07:05:54.288Z,99850.84
2022-11-27T07:08:22.248Z,99847.03
2022-11-27T07:10:48.628Z,99841.63
2022-11-27T07:13:15.072Z,99839.47
2022-11-27T07:15:41.638Z,99832.81
2022-11-27T07:18:08.015Z,99837.56
2022-11-27T07:20:34.407Z,99832.28
2022-11-27T07:23:00.807Z,99836.63
2022-11-27T07:25:27.220Z,99831.22
2022-11-27T07:27:54.955Z,99821.59
2022-11-27T07:30:21.397Z,99826.75
2022-11-27T07:32:47.777Z,99823.47
2022-11-27T07:35:14.213Z,99824.81
2022-11-27T07:37:40.570Z,99824.53
2022-11-27T07:40:07.581Z,99813.06
2022-11-27T07:42:38.776Z,99808.44
2022-11-27T07:45:07.958Z,99800.06
2022-11-27T07:47:34.341Z,99804.78
2022-11-27T07:50:00.977Z,99802.69
2022-11-27T07:52:27.793Z,99812.16
2022-11-27T07:54:54.372Z,99806.97
2022-11-27T07:57:20.857Z,99814.41
2022-11-27T07:59:47.822Z,99801.63
2022-11-27T08:02:14.698Z,99811.97
2022-11-27T08:04:41.513Z,99816.31
2022-11-27T08:07:08.184Z,99824.13
2022-11-27T08:09:34.627Z,99816.41
2022-11-27T08:12:01.036Z,99815.88
2022-11-27T08:14:27.509Z,99815.41
2022-11-27T08:16:53.978Z,99807.91
2022-11-27T08:19:20.588Z,99806.13
2022-11-27T08:21:47.061Z,99808.13
2022-11-27T08:24:13.491Z,99813.28
2022-11-27T08:26:40.084Z,99812.28
2022-11-27T08:29:06.628Z,99809.78
2022-11-27T08:31:33.865Z,99812.50
2022-11-27T08:34:00.325Z,99812.44
2022-11-27T08:36:26.916Z,99819.06
2022-11-27T08:38:55.481Z,99817.22
2022-11-27T08:41:22.157Z,99808.59
2022-11-27T08:43:48.885Z,99801.81
2022-11-27T08:46:15.997Z,99803.44
2022-11-27T08:48:42.418Z,99801.66
2022-11-27T08:51:14.638Z,99796.06
2022-11-27T08:53:41.263Z,99785.50
2022-11-27T08:56:22.640Z,99782.69
2022-11-27T08:58:49.473Z,99788.72
2022-11-27T09:01:19.297Z,99791.81
2022-11-27T09:03:46.925Z,99790.50
2022-11-27T09:06:21.582Z,99790.19
2022-11-27T09:08:48.763Z,99790.75
2022-11-27T09:11:17.808Z,99798.16
2022-11-27T09:13:44.884Z,99796.13
2022-11-27T09:16:15.540Z,99805.44
2022-11-27T09:18:44.941Z,99797.06
2022-11-27T09:21:13.226Z,99798.50
2022-11-27T09:23:40.397Z,99786.56
2022-11-27T09:26:09.956Z,99777.72
2022-11-27T09:28:37.926Z,99781.63
2022-11-27T09:31:06.407Z,99776.63
2022-11-27T09:33:34.785Z,99780.66
2022-11-27T09:36:25.637Z,99772.16
2022-11-27T09:38:52.786Z,99774.53
2022-11-27T09:41:28.200Z,99772.00
2022-11-27T09:43:59.004Z,99764.97
2022-11-27T09:46:52.292Z,99770.84
2022-11-27T09:49:43.913Z,99767.47
2022-11-27T09:52:19.211Z,99767.34
2022-11-27T09:54:55.009Z,99760.56
2022-11-27T09:57:42.772Z,99754.78
2022-11-27T10:00:16.030Z,99747.53
2022-11-27T10:02:43.609Z,99750.09
2022-11-27T10:05:22.311Z,99759.50
2022-11-27T10:08:08.674Z,99749.25
2022-11-27T10:11:17.215Z,99746.00
2022-11-27T10:13:49.203Z,99749.63
2022-11-27T10:16:44.835Z,99752.69
2022-11-27T10:19:31.434Z,99744.47
2022-11-27T10:22:33.208Z,99741.59
2022-11-27T10:25:45.358Z,99734.94
2022-11-27T10:28:56.401Z,99734.94
2022-11-27T10:31:38.988Z,99729.00
2022-11-27T10:34:20.731Z,99722.97
2022-11-27T10:36:50.604Z,99724.13
2022-11-27T10:39:30.630Z,99723.63
2022-11-27T10:42:03.848Z,99714.25
2022-11-27T10:44:34.978Z,99721.06
2022-11-27T10:47:04.003Z,99699.72
2022-11-27T10:49:31.448Z,99701.97
2022-11-27T10:51:57.929Z,99688.69
2022-11-27T10:54:32.490Z,99686.13
2022-11-27T10:57:04.595Z,99677.72
2022-11-27T10:59:40.345Z,99675.94
2022-11-27T11:02:26.493Z,99668.81
2022-11-27T11:05:16.175Z,99653.28
2022-11-27T11:07:39.574Z,99645.22
2022-11-27T11:10:24.654Z,99641.97
2022-11-27T11:13:09.986Z,99642.59
2022-11-27T11:16:04.202Z,99635.28
2022-11-27T11:18:34.405Z,99630.56
2022-11-27T11:21:03.249Z,99629.09
2022-11-27T11:23:33.054Z,99625.16
2022-11-27T11:26:03.615Z,99620.78
2022-11-27T11:28:36.499Z,99618.84
2022-11-27T11:31:09.532Z,99620.19
2022-11-27T11:33:47.415Z,99612.59
2022-11-27T11:36:13.876Z,99609.22
2022-11-27T11:38:44.529Z,99601.84
2022-11-27T11:41:12.791Z,99603.34
2022-11-27T11:43:40.037Z,99603.16
2022-11-27T11:46:23.005Z,99602.56
2022-11-27T11:49:01.563Z,99591.69
2022-11-27T11:51:56.077Z,99586.94
2022-11-27T11:54:49.925Z,99585.69
2022-11-27T11:57:59.274Z,99578.81
2022-11-27T12:01:24.986Z,99572.78
2022-11-27T12:04:02.643Z,99572.13
2022-11-27T12:06:55.767Z,99573.78
2022-11-27T12:09:41.093Z,99568.78
2022-11-27T12:12:46.133Z,99574.09
2022-11-27T12:15:37.262Z,99556.66
2022-11-27T12:18:19.100Z,99547.44
2022-11-27T12:20:56.631Z,99538.94
2022-11-27T12:23:52.835Z,99527.59
2022-11-27T12:26:58.384Z,99527.94
2022-11-27T12:29:46.381Z,99532.41
2022-11-27T12:32:39.587Z,99528.53
2022-11-27T12:35:25.045Z,99525.19
2022-11-27T12:38:13.211Z,99534.44
2022-11-27T12:40:56.498Z,99522.16
2022-11-27T12:43:28.176Z,99526.53
2022-11-27T12:46:06.816Z,99527.66
2022-11-27T12:48:42.323Z,99519.00
2022-11-27T12:51:26.787Z,99516.91
2022-11-27T12:54:05.728Z,99515.78
2022-11-27T12:56:44.681Z,99514.97
2022-11-27T12:59:33.687Z,99513.22
2022-11-27T13:02:38.411Z,99515.84
2022-11-27T13:05:20.382Z,99515.75
2022-11-27T13:07:54.437Z,99510.44
2022-11-27T13:10:46.880Z,99504.06
2022-11-27T13:13:22.035Z,99506.38
2022-11-27T13:16:21.716Z,99508.97
2022-11-27T13:19:30.294Z,99507.34
2022-11-27T13:21:57.720Z,99508.22
2022-11-27T13:24:25.764Z,99505.78
2022-11-27T13:27:01.965Z,99503.66
2022-11-27T13:29:40.149Z,99502.41
2022-11-27T13:32:08.952Z,99495.72
2022-11-27T13:34:46.768Z,99492.28
2022-11-27T13:37:37.013Z,99484.97
2022-11-27T13:40:23.724Z,99480.19
2022-11-27T13:42:55.809Z,99476.19
2022-11-27T13:45:26.483Z,99469.91
2022-11-27T13:47:53.774Z,99474.13
2022-11-27T13:50:26.907Z,99459.41
2022-11-27T13:53:05.766Z,99467.44
2022-11-27T13:55:37.651Z,99469.88
2022-11-27T13:58:06.779Z,99473.13
2022-11-27T14:00:42.596Z,99467.13
2022-11-27T14:03:26.065Z,99461.75
2022-11-27T14:05:53.334Z,99452.97
2022-11-27T14:08:33.967Z,99459.97
2022-11-27T14:11:05.944Z,99453.47
2022-11-27T14:13:45.268Z,99443.25
2022-11-27T14:16:42.657Z,99442.59
2022-11-27T14:19:33.344Z,99457.00
2022-11-27T14:22:01.854Z,99441.22
2022-11-27T14:24:41.636Z,99443.00
2022-11-27T14:27:23.694Z,99447.44
2022-11-27T14:29:51.176Z,99438.34
2022-11-27T14:32:19.759Z,99437.31
2022-11-27T14:34:48.676Z,99434.38
2022-11-27T14:37:33.642Z,99428.59
2022-11-27T14:40:00.282Z,99427.47
2022-11-27T14:42:30.668Z,99414.31
2022-11-27T14:45:08.721Z,99418.53
2022-11-27T14:47:35.753Z,99411.63
2022-11-27T14:50:04.014Z,99403.00
2022-11-27T14:52:33.626Z,99400.03
2022-11-27T14:55:05.645Z,99400.13
2022-11-27T14:57:32.508Z,99393.50
2022-11-27T15:00:17.519Z,99389.31
2022-11-27T15:02:45.779Z,99380.94
2022-11-27T15:05:27.106Z,99380.28
2022-11-27T15:07:56.676Z,99384.03
2022-11-27T15:10:37.019Z,99383.22
2022-11-27T15:13:05.924Z,99382.00
2022-11-27T15:15:44.487Z,99374.88
2022-11-27T15:18:20.361Z,99377.09
2022-11-27T15:20:47.181Z,99371.13
2022-11-27T15:23:25.325Z,99364.00
2022-11-27T15:26:03.882Z,99366.75
2022-11-27T15:28:30.536Z,99361.56
2022-11-27T15:30:57.823Z,99370.28
2022-11-27T15:33:33.335Z,99356.34
2022-11-27T15:36:37.524Z,99350.25
2022-11-27T15:39:15.142Z,99346.91
2022-11-27T15:41:50.944Z,99347.06
2022-11-27T15:44:17.521Z,99338.97
2022-11-27T15:46:44.319Z,99336.16
2022-11-27T15:49:15.308Z,99340.03
2022-11-27T15:51:42.623Z,99341.44
2022-11-27T15:54:09.306Z,99335.41
2022-11-27T15:56:36.084Z,99348.91
2022-11-27T15:59:04.330Z,99337.88
2022-11-27T16:01:31.000Z,99332.34
2022-11-27T16:03:58.823Z,99328.91
2022-11-27T16:06:25.486Z,99321.66
2022-11-27T16:08:59.282Z,99308.94
2022-11-27T16:11:28.448Z,99291.41
2022-11-27T16:13:55.478Z,99284.44
2022-11-27T16:16:26.233Z,99283.47
2022-11-27T16:18:57.046Z,99283.56
2022-11-27T16:21:29.230Z,99268.09
2022-11-27T16:23:58.417Z,99266.16
2022-11-27T16:26:28.208Z,99251.22
2022-11-27T16:28:55.647Z,99241.75
2022-11-27T16:31:23.369Z,99233.09
2022-11-27T16:33:50.005Z,99222.81
2022-11-27T16:36:18.164Z,99220.84
2022-11-27T16:38:45.773Z,99217.72
2022-11-27T16:41:17.944Z,99213.91
2022-11-27T16:43:47.236Z,99224.34
2022-11-27T16:46:21.811Z,99233.72
2022-11-27T16:48:51.342Z,99227.97
2022-11-27T16:51:21.599Z,99217.97
2022-11-27T16:53:50.078Z,99217.19
2022-11-27T16:56:18.799Z,99206.47
2022-11-27T16:58:47.160Z,99210.81
2022-11-27T17:01:17.065Z,99207.44
2022-11-27T17:03:43.895Z,99203.88
2022-11-27T17:06:13.080Z,99207.06
2022-11-27T17:08:40.403Z,99210.81
2022-11-27T17:11:17.274Z,99209.66
2022-11-27T17:13:44.550Z,99214.06
2022-11-27T17:16:11.358Z,99221.91
2022-11-27T17:18:42.580Z,99211.09
2022-11-27T17:21:27.385Z,99216.72
2022-11-27T17:24:11.571Z,99213.34
2022-11-27T17:26:43.127Z,99209.84
2022-11-27T17:29:11.518Z,99213.25
2022-11-27T17:31:38.986Z,99208.06
2022-11-27T17:34:10.196Z,99204.31
2022-11-27T17:36:37.775Z,99207.78
2022-11-27T17:39:11.190Z,99219.47
2022-11-27T17:41:39.993Z,99218.38
2022-11-27T17:44:07.582Z,99223.09
2022-11-27T17:46:35.319Z,99216.69
2022-11-27T17:49:03.544Z,99216.75
2022-11-27T17:51:36.146Z,99218.22
2022-11-27T17:54:03.824Z,99214.69
2022-11-27T17:56:30.562Z,99212.47
2022-11-27T17:58:57.171Z,99213.63
2022-11-27T18:01:34.105Z,99214.09
2022-11-27T18:04:05.721Z,99212.56
2022-11-27T18:06:33.082Z,99215.44
2022-11-27T18:09:00.031Z,99209.50
2022-11-27T18:11:29.210Z,99207.03
2022-11-27T18:13:55.817Z,99195.84
2022-11-27T18:16:28.932Z,99182.91
2022-11-27T18:18:57.472Z,99170.59
2022-11-27T18:21:27.119Z,99156.13
2022-11-27T18:24:21.791Z,99147.53
2022-11-27T18:27:11.178Z,99143.38
2022-11-27T18:29:27.640Z,99136.94
2022-11-27T18:31:54.281Z,99136.75
2022-11-27T18:34:20.883Z,99136.66
2022-11-27T18:36:47.464Z,99136.47
2022-11-27T18:39:14.094Z,99132.91
2022-11-27T18:41:40.888Z,99129.72
2022-11-27T18:44:07.455Z,99131.56
2022-11-27T18:46:34.234Z,99132.28
2022-11-27T18:49:01.296Z,99126.19
2022-11-27T18:51:27.924Z,99118.63
2022-11-27T18:53:55.940Z,99111.75
2022-11-27T18:56:25.645Z,99108.88
2022-11-27T18:58:53.945Z,99101.75
2022-11-27T19:01:23.802Z,99097.03
2022-11-27T19:03:51.127Z,99095.88
2022-11-27T19:06:19.940Z,99084.28
2022-11-27T19:08:47.126Z,99068.03
2022-11-27T19:11:17.194Z,99058.56
2022-11-27T19:13:45.323Z,99063.59
2022-11-27T19:16:15.161Z,99067.22
2022-11-27T19:18:42.091Z,99071.44
2022-11-27T19:21:21.507Z,99072.75
2022-11-27T19:23:48.582Z,99071.75
2022-11-27T19:26:19.063Z,99071.03
2022-11-27T19:28:48.684Z,99082.34
2022-11-27T19:31:16.567Z,99077.03
2022-11-27T19:33:43.578Z,99083.72
2022-11-27T19:36:14.353Z,99083.56
2022-11-27T19:38:42.605Z,99078.44
2022-11-27T19:41:16.659Z,99075.69
2022-11-27T19:43:45.323Z,99075.81
2022-11-27T19:46:17.037Z,99070.88
2022-11-27T19:48:44.444Z,99078.91
2022-11-27T19:51:11.680Z,99066.63
2022-11-27T19:53:38.615Z,99078.03
2022-11-27T19:56:06.043Z,99065.44
2022-11-27T20:01:40.518Z,99069.34
2022-11-27T20:04:07.825Z,99059.28
2022-11-27T20:06:37.588Z,99051.88
2022-11-27T20:09:05.517Z,99058.66
2022-11-27T20:11:34.842Z,99049.56
2022-11-27T20:14:03.965Z,99048.22
2022-11-27T20:16:30.646Z,99037.00
2022-11-27T20:18:57.237Z,99038.50
2022-11-27T20:21:25.737Z,99041.81
2022-11-27T20:23:53.519Z,99034.31
2022-11-27T20:26:25.478Z,99030.00
2022-11-27T20:28:55.659Z,99029.66
2022-11-27T20:31:26.581Z,99020.22
2022-11-27T20:33:55.748Z,99025.81
2022-11-27T20:36:23.854Z,99029.13
2022-11-27T20:38:55.103Z,99030.31
2022-11-27T20:41:22.445Z,99028.06
2022-11-27T20:43:50.814Z,99016.63
2022-11-27T20:46:17.837Z,99012.19
2022-11-27T20:48:49.353Z,99001.50
2022-11-27T20:51:21.737Z,98994.06
2022-11-27T20:53:49.389Z,98990.78
2022-11-27T20:56:18.082Z,98989.63
2022-11-27T20:58:45.317Z,98993.34
2022-11-27T21:01:14.802Z,98989.53
2022-11-27T21:03:41.508Z,98984.97
2022-11-27T21:06:08.581Z,98986.31
2022-11-27T21:08:35.418Z,98979.97
2022-11-27T21:11:14.083Z,98972.06
2022-11-27T21:13:41.211Z,98962.97
2022-11-27T21:16:10.138Z,98960.28
2022-11-27T21:18:37.214Z,98956.72
2022-11-27T21:21:08.729Z,98962.78
2022-11-27T21:23:35.474Z,98961.97
2022-11-27T21:26:01.947Z,98959.94
2022-11-27T21:28:29.568Z,98967.59
2022-11-27T21:31:04.796Z,98961.63
2022-11-27T21:33:31.343Z,98953.59
2022-11-27T21:35:57.828Z,98958.41
2022-11-27T21:38:24.293Z,98961.06
2022-11-27T21:40:51.783Z,98967.50
2022-11-27T21:43:18.371Z,98959.13
2022-11-27T21:45:48.489Z,98959.75
2022-11-27T21:48:15.048Z,98953.50
2022-11-27T21:50:41.681Z,98950.41
2022-11-27T21:53:08.280Z,98953.78
2022-11-27T21:55:40.677Z,98944.84
2022-11-27T21:58:07.606Z,98949.66
2022-11-27T22:00:34.863Z,98940.22
2022-11-27T22:03:01.689Z,98924.78
2022-11-27T22:05:28.400Z,98931.66
2022-11-27T22:07:55.153Z,98924.44
2022-11-27T22:10:26.772Z,98919.16
2022-11-27T22:12:53.247Z,98908.44
2022-11-27T22:15:19.731Z,98910.00
2022-11-27T22:17:46.173Z,98902.94
2022-11-27T22:20:15.936Z,98911.25
2022-11-27T22:22:42.573Z,98898.84
2022-11-27T22:25:09.559Z,98891.94
2022-11-27T22:27:36.196Z,98885.63
2022-11-27T22:30:05.858Z,98877.94
2022-11-27T22:32:32.735Z,98864.25
2022-11-27T22:34:59.213Z,98863.34
2022-11-27T22:37:25.704Z,98869.69
2022-11-27T22:39:52.235Z,98872.38
2022-11-27T22:42:18.846Z,98880.13
2022-11-27T22:44:45.439Z,98885.59
2022-11-27T22:47:13.194Z,98890.75
2022-11-27T22:49:39.839Z,98882.09
2022-11-27T22:52:09.473Z,98888.59
2022-11-27T22:54:38.461Z,98893.34
2022-11-27T22:57:05.152Z,98879.69
2022-11-27T22:59:33.761Z,98882.63
2022-11-27T23:02:01.580Z,98878.88
2022-11-27T23:04:28.325Z,98873.00
2022-11-27T23:06:54.800Z,98881.06
2022-11-27T23:09:21.391Z,98881.66
2022-11-27T23:11:48.115Z,98885.66
2022-11-27T23:14:14.704Z,98873.91
2022-11-27T23:16:41.353Z,98865.22
2022-11-27T23:19:08.563Z,98859.34
2022-11-27T23:21:37.503Z,98854.97
2022-11-27T23:24:09.903Z,98847.84
2022-11-27T23:26:36.717Z,98856.34
2022-11-27T23:29:03.683Z,98853.66
2022-11-27T23:31:35.550Z,98849.34
2022-11-27T23:34:05.990Z,98830.47
2022-11-27T23:36:36.098Z,98831.72
2022-11-27T23:39:07.765Z,98829.19
2022-11-27T23:41:35.013Z,98834.75
2022-11-27T23:44:04.275Z,98836.63
2022-11-27T23:46:31.847Z,98842.13
2022-11-27T23:49:00.505Z,98840.28
2022-11-27T23:51:30.529Z,98837.34
2022-11-27T23:53:57.764Z,98833.78
2022-11-27T23:56:26.834Z,98834.56
2022-11-27T23:58:59.947Z,98835.91
